createdAt,value
2019-03-12T00:02:06.148Z,99.90
2019-03-12T00:04:37.164Z,99.90
2019-03-12T00:07:08.022Z,99.90
2019-03-12T00:09:37.839Z,99.90
2019-03-12T00:12:07.916Z,99.90
2019-03-12T00:14:37.594Z,99.90
2019-03-12T00:17:07.557Z,99.90
2019-03-12T00:19:37.287Z,99.90
2019-03-12T00:22:07.203Z,99.90
2019-03-12T00:24:37.460Z,99.90
2019-03-12T00:27:07.497Z,99.90
2019-03-12T00:29:37.511Z,99.90
2019-03-12T00:32:11.130Z,99.90
2019-03-12T00:34:56.313Z,99.90
2019-03-12T00:37:28.889Z,99.90
2019-03-12T00:39:58.862Z,99.90
2019-03-12T00:42:28.894Z,99.90
2019-03-12T00:44:58.716Z,99.90
2019-03-12T00:47:37.490Z,99.90
2019-03-12T00:50:07.852Z,99.90
2019-03-12T00:52:37.445Z,99.90
2019-03-12T00:55:07.483Z,99.90
2019-03-12T00:57:37.358Z,99.90
2019-03-12T01:00:11.285Z,99.90
2019-03-12T01:02:41.051Z,99.90
2019-03-12T01:05:11.128Z,99.90
2019-03-12T01:07:40.925Z,99.90
2019-03-12T01:10:12.141Z,99.90
2019-03-12T01:12:41.779Z,99.90
2019-03-12T01:15:29.765Z,99.90
2019-03-12T01:17:59.475Z,99.90
2019-03-12T01:20:29.103Z,99.90
2019-03-12T01:22:59.100Z,99.90
2019-03-12T01:25:30.013Z,99.90
2019-03-12T01:27:59.458Z,99.90
2019-03-12T01:30:28.976Z,99.90
2019-03-12T01:33:08.256Z,99.90
2019-03-12T01:35:38.229Z,99.90
2019-03-12T01:38:15.325Z,99.90
2019-03-12T01:40:44.910Z,99.90
2019-03-12T01:43:14.593Z,99.90
2019-03-12T01:45:44.570Z,99.90
2019-03-12T01:48:13.934Z,99.90
2019-03-12T01:50:52.449Z,99.90
2019-03-12T01:53:39.386Z,99.90
2019-03-12T01:56:10.722Z,99.90
2019-03-12T01:58:40.219Z,99.90
2019-03-12T02:01:09.676Z,99.90
2019-03-12T02:03:39.373Z,99.90
2019-03-12T02:06:24.728Z,99.90
2019-03-12T02:08:54.046Z,99.90
2019-03-12T02:11:23.423Z,99.90
2019-03-12T02:13:56.340Z,99.90
2019-03-12T02:19:21.478Z,99.90
2019-03-12T02:22:06.729Z,99.90
2019-03-12T02:24:36.223Z,99.90
2019-03-12T02:27:06.398Z,99.90
2019-03-12T02:29:39.479Z,99.90
2019-03-12T02:32:09.596Z,99.90
2019-03-12T02:34:39.730Z,99.90
2019-03-12T02:37:11.341Z,99.90
2019-03-12T02:39:40.699Z,99.90
2019-03-12T02:42:12.675Z,99.90
2019-03-12T02:44:43.865Z,99.90
2019-03-12T02:47:14.121Z,99.90
2019-03-12T02:49:46.997Z,99.90
2019-03-12T02:52:19.063Z,99.90
2019-03-12T02:54:51.845Z,99.90
2019-03-12T02:57:27.595Z,99.90
2019-03-12T03:00:05.908Z,99.90
2019-03-12T03:02:42.915Z,99.90
2019-03-12T03:05:56.597Z,99.90
2019-03-12T03:08:33.017Z,99.90
2019-03-12T03:11:10.006Z,99.90
2019-03-12T03:13:39.583Z,99.90
2019-03-12T03:21:38.333Z,99.90
2019-03-12T03:24:08.071Z,99.90
2019-03-12T03:26:37.403Z,99.90
2019-03-12T03:29:07.800Z,99.90
2019-03-12T03:31:41.399Z,99.90
2019-03-12T03:34:13.882Z,99.90
2019-03-12T03:36:48.069Z,99.90
2019-03-12T03:39:19.103Z,99.90
2019-03-12T03:41:48.907Z,99.90
2019-03-12T03:44:18.563Z,99.90
2019-03-12T03:46:50.112Z,99.90
2019-03-12T03:49:19.778Z,99.90
2019-03-12T03:51:49.793Z,99.90
2019-03-12T03:54:19.329Z,99.90
2019-03-12T03:56:48.992Z,99.90
2019-03-12T03:59:18.657Z,99.90
2019-03-12T04:01:50.765Z,99.90
2019-03-12T04:04:20.476Z,99.90
2019-03-12T04:06:50.416Z,99.90
2019-03-12T04:09:42.111Z,99.90
2019-03-12T04:12:11.928Z,99.90
2019-03-12T04:14:41.505Z,99.90
2019-03-12T04:17:20.284Z,99.90
2019-03-12T04:19:49.839Z,99.90
2019-03-12T04:22:19.326Z,99.90
2019-03-12T04:24:48.875Z,99.90
2019-03-12T04:27:19.239Z,99.90
2019-03-12T04:29:48.716Z,99.90
2019-03-12T04:32:18.571Z,99.90
2019-03-12T04:35:03.093Z,99.90
2019-03-12T04:37:32.851Z,99.90
2019-03-12T04:40:02.513Z,99.90
2019-03-12T04:42:32.289Z,99.90
2019-03-12T04:45:01.816Z,99.90
2019-03-12T04:47:31.602Z,99.90
2019-03-12T04:50:01.517Z,99.90
2019-03-12T04:52:33.901Z,99.90
2019-03-12T04:55:03.581Z,99.90
2019-03-12T04:57:39.739Z,99.90
2019-03-12T05:00:12.070Z,99.90
2019-03-12T05:02:41.735Z,99.90
2019-03-12T05:05:11.168Z,99.90
2019-03-12T05:07:40.937Z,99.90
2019-03-12T05:10:12.196Z,99.90
2019-03-12T05:12:41.729Z,99.90
2019-03-12T05:15:12.989Z,99.90
2019-03-12T05:17:43.401Z,99.90
2019-03-12T05:20:14.338Z,99.90
2019-03-12T05:22:43.741Z,99.90
2019-03-12T05:25:13.834Z,99.90
2019-03-12T05:27:45.620Z,99.90
2019-03-12T05:30:17.481Z,99.90
2019-03-12T05:32:59.477Z,99.90
2019-03-12T05:35:36.942Z,99.90
2019-03-12T05:38:09.623Z,99.90
2019-03-12T05:40:39.892Z,99.90
2019-03-12T05:43:10.068Z,99.90
2019-03-12T05:45:40.315Z,99.90
2019-03-12T05:48:09.922Z,99.90
2019-03-12T05:50:39.145Z,99.90
2019-03-12T05:53:15.986Z,99.90
2019-03-12T05:55:45.810Z,99.90
2019-03-12T05:58:15.779Z,99.90
2019-03-12T06:00:45.434Z,99.90
2019-03-12T06:03:15.122Z,99.90
2019-03-12T06:05:45.029Z,99.90
2019-03-12T06:08:14.599Z,99.90
2019-03-12T06:10:44.396Z,99.90
2019-03-12T06:13:14.478Z,99.90
2019-03-12T06:15:44.254Z,99.90
2019-03-12T06:18:13.885Z,99.90
2019-03-12T06:20:43.933Z,99.90
2019-03-12T06:23:15.305Z,99.90
2019-03-12T06:25:45.176Z,99.90
2019-03-12T06:28:14.906Z,99.90
2019-03-12T06:31:03.769Z,99.90
2019-03-12T06:33:56.066Z,99.90
2019-03-12T06:40:13.258Z,99.90
2019-03-12T06:42:47.848Z,99.90
2019-03-12T06:45:42.664Z,99.90
2019-03-12T06:48:32.688Z,99.90
2019-03-12T06:51:20.540Z,99.90
2019-03-12T06:54:06.254Z,99.90
2019-03-12T06:57:03.882Z,99.90
2019-03-12T06:59:44.993Z,99.90
2019-03-12T07:02:36.629Z,99.90
2019-03-12T07:05:34.450Z,99.90
2019-03-12T07:08:17.303Z,99.90
2019-03-12T07:11:06.468Z,99.90
2019-03-12T07:13:50.729Z,99.90
2019-03-12T07:16:33.746Z,99.90
2019-03-12T07:19:11.645Z,99.90
2019-03-12T07:21:49.905Z,99.90
2019-03-12T07:24:29.832Z,99.90
2019-03-12T07:27:22.071Z,99.90
2019-03-12T07:30:16.719Z,99.90
2019-03-12T07:33:02.339Z,99.90
2019-03-12T07:35:38.167Z,99.90
2019-03-12T07:38:27.927Z,99.90
2019-03-12T07:41:22.887Z,99.90
2019-03-12T07:43:48.339Z,99.90
2019-03-12T07:46:55.234Z,99.90
2019-03-12T07:49:49.849Z,99.90
2019-03-12T07:52:38.319Z,99.90
2019-03-12T07:55:25.865Z,99.90
2019-03-12T08:01:19.255Z,99.90
2019-03-12T08:03:59.628Z,99.90
2019-03-12T08:06:47.218Z,99.90
2019-03-12T08:09:33.786Z,99.90
2019-03-12T08:12:22.202Z,94.80
2019-03-12T08:15:22.657Z,94.70
2019-03-12T08:18:10.329Z,92.60
2019-03-12T08:21:07.524Z,82.50
2019-03-12T08:23:50.199Z,83.00
2019-03-12T08:26:34.655Z,86.60
2019-03-12T08:29:19.561Z,83.30
2019-03-12T08:31:57.033Z,74.30
2019-03-12T08:34:48.248Z,72.30
2019-03-12T08:37:21.929Z,66.70
2019-03-12T08:40:07.112Z,70.20
2019-03-12T08:42:54.627Z,68.20
2019-03-12T08:45:32.853Z,62.90
2019-03-12T08:48:32.920Z,60.30
2019-03-12T08:51:15.273Z,58.00
2019-03-12T08:53:52.848Z,58.90
2019-03-12T08:56:47.092Z,54.30
2019-03-12T08:59:38.367Z,52.00
2019-03-12T09:02:29.616Z,55.30
2019-03-12T09:05:07.785Z,48.30
2019-03-12T09:07:46.519Z,50.30
2019-03-12T09:10:31.367Z,54.50
2019-03-12T09:13:13.073Z,56.20
2019-03-12T09:15:55.164Z,54.20
2019-03-12T09:18:50.488Z,52.80
2019-03-12T09:21:28.607Z,54.40
2019-03-12T09:24:07.721Z,54.60
2019-03-12T09:27:06.697Z,56.10
2019-03-12T09:29:45.429Z,58.30
2019-03-12T09:32:29.969Z,59.00
2019-03-12T09:35:06.475Z,58.40
2019-03-12T09:37:54.729Z,54.40
2019-03-12T09:40:34.734Z,54.10
2019-03-12T09:43:16.125Z,53.90
2019-03-12T09:46:15.498Z,52.90
2019-03-12T09:49:09.562Z,53.30
2019-03-12T09:51:54.390Z,49.50
2019-03-12T09:54:45.415Z,52.00
2019-03-12T09:57:32.756Z,47.20
2019-03-12T10:00:29.993Z,47.00
2019-03-12T10:03:21.080Z,44.70
2019-03-12T10:05:57.910Z,44.10
2019-03-12T10:08:52.374Z,44.20
2019-03-12T10:11:29.826Z,43.30
2019-03-12T10:14:24.201Z,41.30
2019-03-12T10:17:18.321Z,40.80
2019-03-12T10:20:05.137Z,39.90
2019-03-12T10:22:52.216Z,39.60
2019-03-12T10:25:52.582Z,36.80
2019-03-12T10:28:35.515Z,41.90
2019-03-12T10:31:23.133Z,40.50
2019-03-12T10:34:28.814Z,40.40
2019-03-12T10:37:11.881Z,38.10
2019-03-12T10:40:08.850Z,38.40
2019-03-12T10:42:45.728Z,38.90
2019-03-12T10:45:28.029Z,37.20
2019-03-12T10:47:57.856Z,40.00
2019-03-12T10:50:27.093Z,37.40
2019-03-12T10:52:57.506Z,38.30
2019-03-12T10:55:26.793Z,40.30
2019-03-12T10:57:56.150Z,39.90
2019-03-12T11:00:25.445Z,37.60
2019-03-12T11:02:54.700Z,38.80
2019-03-12T11:05:23.971Z,38.90
2019-03-12T11:07:53.237Z,38.50
2019-03-12T11:10:22.640Z,39.20
2019-03-12T11:12:53.014Z,39.10
2019-03-12T11:15:22.281Z,39.40
2019-03-12T11:17:51.525Z,37.70
2019-03-12T11:20:20.943Z,40.40
2019-03-12T11:22:51.201Z,37.60
2019-03-12T11:25:27.041Z,40.90
2019-03-12T11:27:51.377Z,38.10
2019-03-12T11:30:20.754Z,37.60
2019-03-12T11:32:50.025Z,36.30
2019-03-12T11:35:19.325Z,34.80
2019-03-12T11:37:48.886Z,33.40
2019-03-12T11:40:19.084Z,36.10
2019-03-12T11:42:48.447Z,35.90
2019-03-12T11:45:31.076Z,34.70
2019-03-12T11:47:51.157Z,33.30
2019-03-12T11:50:20.962Z,34.70
2019-03-12T11:52:55.636Z,34.90
2019-03-12T11:55:21.312Z,33.20
2019-03-12T11:57:50.589Z,33.90
2019-03-12T12:00:42.637Z,34.40
2019-03-12T12:03:13.492Z,33.80
2019-03-12T12:05:42.747Z,34.80
2019-03-12T12:08:12.051Z,34.70
2019-03-12T12:10:41.257Z,36.00
2019-03-12T12:13:10.521Z,32.90
2019-03-12T12:15:39.776Z,33.30
2019-03-12T12:18:09.039Z,33.20
2019-03-12T12:20:38.296Z,34.20
2019-03-12T12:23:07.544Z,33.70
2019-03-12T12:25:37.903Z,34.00
2019-03-12T12:28:07.189Z,33.10
2019-03-12T12:30:36.506Z,35.60
2019-03-12T12:33:05.788Z,34.80
2019-03-12T12:35:36.604Z,32.80
2019-03-12T12:38:05.851Z,34.60
2019-03-12T12:40:35.184Z,33.30
2019-03-12T12:43:04.441Z,35.00
2019-03-12T12:45:33.865Z,32.90
2019-03-12T12:48:03.158Z,32.80
2019-03-12T12:50:32.411Z,32.90
2019-03-12T12:53:01.686Z,32.50
2019-03-12T12:55:30.940Z,31.70
2019-03-12T12:58:00.201Z,31.70
2019-03-12T13:00:29.504Z,32.60
2019-03-12T13:03:00.560Z,32.60
2019-03-12T13:05:29.864Z,31.90
2019-03-12T13:07:59.101Z,32.80
2019-03-12T13:10:28.369Z,30.30
2019-03-12T13:12:57.618Z,30.40
2019-03-12T13:15:26.861Z,32.10
2019-03-12T13:17:56.283Z,30.70
2019-03-12T13:20:25.537Z,31.00
2019-03-12T13:22:54.799Z,30.60
2019-03-12T13:25:24.037Z,31.90
2019-03-12T13:27:53.289Z,30.20
2019-03-12T13:30:22.536Z,30.80
2019-03-12T13:32:51.832Z,29.10
2019-03-12T13:35:21.140Z,29.80
2019-03-12T13:37:50.408Z,31.30
2019-03-12T13:40:19.876Z,31.10
2019-03-12T13:42:49.153Z,30.20
2019-03-12T13:45:19.161Z,30.50
2019-03-12T13:47:48.421Z,31.10
2019-03-12T13:50:17.775Z,32.90
2019-03-12T13:52:47.044Z,31.20
2019-03-12T13:55:17.607Z,31.40
2019-03-12T13:57:46.806Z,30.50
2019-03-12T14:00:17.936Z,29.00
2019-03-12T14:02:47.552Z,30.80
2019-03-12T14:05:16.817Z,29.60
2019-03-12T14:07:46.054Z,29.90
2019-03-12T14:10:20.206Z,30.70
2019-03-12T14:12:49.512Z,30.00
2019-03-12T14:15:24.852Z,31.10
2019-03-12T14:17:54.116Z,30.00
2019-03-12T14:20:37.810Z,29.40
2019-03-12T14:23:08.041Z,30.30
2019-03-12T14:25:37.474Z,30.00
2019-03-12T14:28:07.847Z,31.90
2019-03-12T14:30:37.180Z,29.70
2019-03-12T14:33:06.669Z,30.80
2019-03-12T14:35:35.948Z,29.50
2019-03-12T14:38:05.205Z,30.30
2019-03-12T14:40:34.582Z,30.00
2019-03-12T14:43:03.843Z,28.80
2019-03-12T14:45:33.113Z,30.90
2019-03-12T14:48:02.366Z,29.70
2019-03-12T14:50:31.680Z,29.00
2019-03-12T14:53:07.316Z,28.60
2019-03-12T14:55:35.499Z,28.80
2019-03-12T14:58:04.760Z,28.90
2019-03-12T15:00:34.077Z,29.00
2019-03-12T15:03:03.350Z,29.50
2019-03-12T15:05:32.619Z,28.90
2019-03-12T15:08:01.873Z,28.30
2019-03-12T15:10:32.225Z,28.10
2019-03-12T15:13:01.513Z,28.90
2019-03-12T15:15:39.888Z,28.80
2019-03-12T15:18:09.217Z,28.60
2019-03-12T15:20:38.692Z,29.20
2019-03-12T15:23:07.997Z,29.50
2019-03-12T15:25:37.240Z,29.40
2019-03-12T15:28:06.503Z,30.60
2019-03-12T15:30:35.783Z,29.40
2019-03-12T15:33:05.088Z,29.70
2019-03-12T15:35:34.368Z,30.70
2019-03-12T15:38:03.628Z,30.80
2019-03-12T15:40:32.886Z,32.60
2019-03-12T15:43:02.153Z,33.50
2019-03-12T15:45:31.437Z,33.20
2019-03-12T15:48:00.676Z,33.90
2019-03-12T15:50:30.401Z,33.80
2019-03-12T15:52:59.741Z,33.60
2019-03-12T15:55:29.053Z,33.50
2019-03-12T15:57:58.434Z,33.80
2019-03-12T16:00:27.688Z,34.30
2019-03-12T16:02:57.238Z,34.80
2019-03-12T16:05:26.591Z,34.80
2019-03-12T16:07:55.851Z,35.20
2019-03-12T16:10:25.937Z,36.00
2019-03-12T16:12:55.250Z,36.30
2019-03-12T16:15:26.340Z,37.00
2019-03-12T16:17:55.616Z,37.20
2019-03-12T16:20:25.039Z,37.80
2019-03-12T16:22:54.502Z,38.40
2019-03-12T16:25:23.751Z,38.90
2019-03-12T16:27:53.039Z,40.20
2019-03-12T16:30:22.339Z,41.00
2019-03-12T16:32:51.764Z,41.20
2019-03-12T16:35:21.289Z,41.70
2019-03-12T16:37:52.405Z,41.40
2019-03-12T16:40:22.557Z,42.60
2019-03-12T16:42:52.152Z,42.00
2019-03-12T16:45:21.500Z,41.80
2019-03-12T16:47:52.261Z,42.50
2019-03-12T16:50:21.768Z,42.60
2019-03-12T16:52:51.014Z,43.20
2019-03-12T16:55:20.938Z,43.40
2019-03-12T16:57:50.306Z,43.80
2019-03-12T17:00:19.656Z,43.90
2019-03-12T17:02:48.938Z,44.20
2019-03-12T17:05:19.744Z,44.00
2019-03-12T17:07:49.116Z,45.10
2019-03-12T17:10:18.490Z,44.50
2019-03-12T17:12:47.790Z,44.70
2019-03-12T17:15:17.041Z,44.80
2019-03-12T17:17:46.318Z,44.70
2019-03-12T17:20:15.883Z,44.80
2019-03-12T17:22:45.369Z,45.00
2019-03-12T17:25:15.273Z,45.20
2019-03-12T17:27:45.399Z,45.40
2019-03-12T17:30:18.396Z,45.40
2019-03-12T17:32:49.484Z,45.40
2019-03-12T17:35:21.881Z,45.40
2019-03-12T17:37:52.133Z,45.70
2019-03-12T17:40:24.343Z,45.80
2019-03-12T17:43:08.417Z,45.90
2019-03-12T17:49:22.779Z,46.00
2019-03-12T17:51:52.140Z,46.30
2019-03-12T17:54:21.497Z,46.40
2019-03-12T17:56:51.251Z,46.40
2019-03-12T17:59:21.990Z,46.60
2019-03-12T18:02:14.154Z,46.70
2019-03-12T18:04:43.536Z,46.80
2019-03-12T18:07:12.937Z,47.50
2019-03-12T18:09:42.330Z,46.70
2019-03-12T18:12:17.752Z,46.60
2019-03-12T18:14:47.689Z,46.60
2019-03-12T18:17:17.104Z,46.70
2019-03-12T18:19:48.376Z,46.70
2019-03-12T18:22:17.844Z,46.60
2019-03-12T18:24:50.967Z,46.60
2019-03-12T18:27:23.778Z,47.20
2019-03-12T18:29:57.763Z,46.60
2019-03-12T18:32:24.354Z,46.70
2019-03-12T18:34:57.742Z,46.90
2019-03-12T18:37:27.006Z,47.20
2019-03-12T18:39:56.383Z,46.90
2019-03-12T18:42:25.761Z,47.20
2019-03-12T18:44:55.029Z,47.20
2019-03-12T18:47:43.055Z,47.00
2019-03-12T18:50:15.400Z,46.90
2019-03-12T18:52:44.978Z,46.80
2019-03-12T18:55:40.677Z,47.20
2019-03-12T18:58:19.259Z,46.60
2019-03-12T19:00:53.216Z,46.90
2019-03-12T19:03:22.776Z,46.60
2019-03-12T19:06:54.063Z,46.40
2019-03-12T19:09:29.600Z,47.00
2019-03-12T19:12:12.908Z,46.60
2019-03-12T19:14:49.997Z,46.40
2019-03-12T19:17:19.444Z,46.40
2019-03-12T19:20:18.101Z,46.30
2019-03-12T19:26:39.803Z,45.90
2019-03-12T19:29:09.221Z,45.80
2019-03-12T19:32:22.971Z,45.40
2019-03-12T19:35:10.982Z,45.90
2019-03-12T19:37:54.784Z,45.60
2019-03-12T19:40:28.248Z,45.20
2019-03-12T19:43:29.773Z,45.70
2019-03-12T19:45:59.708Z,45.20
2019-03-12T19:48:42.702Z,45.00
2019-03-12T19:51:28.922Z,45.00
2019-03-12T19:54:00.058Z,45.10
2019-03-12T19:56:42.290Z,45.20
2019-03-12T19:59:12.799Z,44.30
2019-03-12T20:01:42.390Z,43.80
2019-03-12T20:04:12.080Z,43.70
2019-03-12T20:06:41.730Z,43.50
2019-03-12T20:09:12.738Z,43.90
2019-03-12T20:12:14.602Z,45.10
2019-03-12T20:15:31.596Z,45.70
2019-03-12T20:18:44.731Z,45.80
2019-03-12T20:22:06.342Z,46.60
2019-03-12T20:25:26.465Z,46.30
2019-03-12T20:28:56.951Z,46.30
2019-03-12T20:32:03.257Z,47.00
2019-03-12T20:35:15.686Z,47.10
2019-03-12T20:38:28.246Z,47.50
2019-03-12T20:41:50.741Z,46.90
2019-03-12T20:45:03.209Z,46.30
2019-03-12T20:48:35.242Z,47.30
2019-03-12T20:51:42.062Z,47.10
2019-03-12T20:54:59.351Z,47.80
2019-03-12T20:58:12.050Z,46.90
2019-03-12T21:01:38.051Z,48.40
2019-03-12T21:04:52.032Z,47.60
2019-03-12T21:08:18.065Z,47.40
2019-03-12T21:11:36.424Z,47.30
2019-03-12T21:14:33.988Z,45.30
2019-03-12T21:17:51.974Z,44.30
2019-03-12T21:21:26.052Z,43.50
2019-03-12T21:24:36.703Z,43.50
2019-03-12T21:27:43.612Z,43.20
2019-03-12T21:30:17.479Z,43.20
2019-03-12T21:33:19.016Z,42.80
2019-03-12T21:35:24.849Z,42.10
2019-03-12T21:40:44.772Z,41.60
2019-03-12T21:43:14.660Z,40.70
2019-03-12T21:45:57.803Z,41.00
2019-03-12T21:48:28.569Z,40.50
2019-03-12T21:51:03.827Z,39.60
2019-03-12T21:54:07.018Z,40.00
2019-03-12T21:56:42.601Z,39.40
2019-03-12T21:59:31.421Z,39.20
2019-03-12T22:02:00.691Z,39.20
2019-03-12T22:04:30.271Z,38.70
2019-03-12T22:07:29.967Z,38.90
2019-03-12T22:09:59.585Z,39.20
2019-03-12T22:12:41.242Z,38.70
2019-03-12T22:15:11.259Z,38.50
2019-03-12T22:17:45.617Z,38.40
2019-03-12T22:20:17.360Z,38.50
2019-03-12T22:23:01.682Z,38.80
2019-03-12T22:25:40.704Z,38.30
2019-03-12T22:31:15.196Z,38.60
2019-03-12T22:33:44.881Z,39.10
2019-03-12T22:36:14.554Z,39.20
2019-03-12T22:38:44.066Z,39.40
2019-03-12T22:41:15.804Z,39.40
2019-03-12T22:43:45.689Z,40.10
2019-03-12T22:46:15.450Z,39.50
2019-03-12T22:48:59.684Z,39.80
2019-03-12T22:51:29.462Z,40.00
2019-03-12T22:54:00.917Z,39.90
2019-03-12T22:56:30.793Z,40.10
2019-03-12T22:59:02.350Z,40.50
2019-03-12T23:01:31.990Z,39.50
2019-03-12T23:04:31.197Z,39.30
2019-03-12T23:07:00.864Z,39.10
2019-03-12T23:09:31.059Z,39.30
2019-03-12T23:12:00.677Z,39.80
2019-03-12T23:14:30.591Z,40.50
2019-03-12T23:17:00.349Z,41.20
2019-03-12T23:19:29.908Z,41.70
2019-03-12T23:21:59.515Z,41.70
2019-03-12T23:24:29.284Z,41.90
2019-03-12T23:27:05.225Z,41.70
2019-03-12T23:30:12.114Z,42.30
2019-03-12T23:32:42.078Z,42.00
2019-03-12T23:35:13.636Z,42.30
2019-03-12T23:37:43.342Z,42.40
2019-03-12T23:40:13.315Z,42.40
2019-03-12T23:42:44.300Z,42.70
2019-03-12T23:45:14.338Z,42.60
2019-03-12T23:47:44.333Z,42.60
2019-03-12T23:50:17.273Z,42.30
2019-03-12T23:52:52.833Z,42.50
2019-03-12T23:55:31.984Z,42.20
2019-03-12T23:58:44.643Z,42.20
